• Join FlightAware (Why Join?)
  • Login
  • US Flag 
02:08AM EDT


 

Airport Tracker/Info


-or-


 

Live Flight TrackerFlight Track Log ✈ DAL268 ✈ 21-Aug-2013 ✈ KSFO - KJFK

Flight Track Log - Related Links

Times and Time Zones

All times are in EDT time to prevent confusion due to time zone crossing. See the DAL268 flight status page for this flight to view local times or setup timezone preferences in your user account.

Time Position Orientation Groundspeed Altitude Reporting Facility
EDT Latitude Longitude Course Direction KTS MPH feet Rate Location/Type
02:29PM 37.6130 -122.3770 58° Northeast 120 138  Level FlightAware
02:30PM 37.6353 -122.3610 30° Northeast 160 184 1,100 1,680 Climbing FlightAware ADS-B
02:30PM 37.6370 -122.3590 43° Northeast 164 189 1,100 1,380 Level FlightAware ADS-B
02:30PM 37.6453 -122.3480 46° Northeast 185 213 1,500 1,380 Climbing FlightAware ADS-B
02:30PM 37.6552 -122.3350 46° Northeast 210 242 1,800 1,260 Climbing FlightAware ADS-B
02:31PM 37.6667 -122.3210 44° Northeast 232 267 2,200 1,620 Climbing FlightAware ADS-B
02:31PM 37.6771 -122.3080 45° Northeast 254 292 2,600 1,680 Climbing FlightAware ADS-B
02:31PM 37.6911 -122.2910 44° Northeast 273 314 3,000 2,580 Climbing FlightAware ADS-B
02:31PM 37.7059 -122.2730 44° Northeast 272 313 4,000 3,180 Climbing FlightAware ADS-B
02:32PM 37.7441 -122.2300 42° Northeast 281 323 6,000 3,120 Climbing FlightAware ADS-B
02:32PM 37.7599 -122.2070 49° Northeast 271 312 7,100 3,060 Climbing FlightAware ADS-B
02:32PM 37.7659 -122.1940 60° Northeast 273 314 7,500 2,580 Climbing FlightAware ADS-B
02:33PM 37.7733 -122.1730 66° East 279 321 8,100 2,700 Climbing FlightAware ADS-B
02:33PM 37.7809 -122.1460 70° East 281 323 8,900 2,760 Climbing FlightAware ADS-B
02:33PM 37.7845 -122.1340 69° East 281 323 9,300 2,400 Climbing FlightAware ADS-B
02:34PM 37.7970 -122.0840 72° East 293 337 10,500 1,740 Climbing FlightAware ADS-B
02:34PM 37.8103 -122.0320 72° East 329 379 11,100 1,200 Climbing FlightAware ADS-B
02:35PM 37.8255 -121.9740 72° East 359 413 11,700 1,380 Climbing FlightAware ADS-B
02:35PM 37.8432 -121.9060 72° East 379 436 12,600 1,860 Climbing FlightAware ADS-B
02:36PM 37.8605 -121.8400 72° East 390 449 13,700 2,220 Climbing FlightAware ADS-B
02:36PM 37.8777 -121.7750 71° East 394 453 14,900 2,340 Climbing FlightAware ADS-B
02:37PM 37.8925 -121.7170 72° East 401 461 15,900 2,220 Climbing FlightAware ADS-B
02:37PM 37.9062 -121.6480 76° East 401 461 17,000 2,160 Climbing FlightAware ADS-B
02:38PM 37.9192 -121.5780 77° East 409 471 18,100 1,920 Climbing FlightAware ADS-B
02:38PM 37.9328 -121.5080 76° East 416 479 19,000 1,800 Climbing FlightAware ADS-B
02:39PM 37.9473 -121.4350 76° East 426 490 19,900 1,740 Climbing FlightAware ADS-B
02:39PM 37.9651 -121.3450 76° East 429 494 21,000 1,740 Climbing FlightAware ADS-B
02:40PM 37.9910 -121.2140 76° East 445 512 22,500 1,560 Climbing FlightAware
02:41PM 38.0080 -121.1280 76° East 453 521 23,300 1,500 Climbing FlightAware
02:41PM 38.0270 -121.0310 76° East 459 528 24,300 1,560 Climbing FlightAware
02:42PM 38.0430 -120.9440 77° East 465 535 25,100 1,380 Climbing FlightAware
02:43PM 38.0600 -120.8530 77° East 470 541 25,900 1,380 Climbing FlightAware
02:43PM 38.0790 -120.7530 76° East 473 544 26,800 1,380 Climbing FlightAware
02:44PM 38.0970 -120.6590 76° East 476 548 27,600 1,560 Climbing FlightAware
02:44PM 38.1150 -120.5600 77° East 472 543 28,700 1,680 Climbing FlightAware
02:45PM 38.1320 -120.4660 77° East 471 542 29,600 1,260 Climbing FlightAware
02:45PM 38.1480 -120.3800 77° East 478 550 30,100 1,140 Climbing FlightAware
02:46PM 38.1660 -120.2820 77° East 479 551 30,900 1,320 Climbing FlightAware
02:47PM 38.1820 -120.1940 77° East 478 550 31,600 1,320 Climbing FlightAware
02:47PM 38.2010 -120.0910 77° East 473 544 32,500 1,140 Climbing FlightAware
02:48PM 38.2170 -119.9970 78° East 472 543 33,000 420 Climbing FlightAware
02:48PM 38.2350 -119.9010 77° East 468 539 33,000  Level FlightAware
02:49PM 38.2540 -119.7920 77° East 470 541 33,000 360 Level FlightAware
02:50PM 38.2690 -119.7060 77° East 467 537 33,500 1,080 Climbing FlightAware
02:50PM 38.2880 -119.6000 77° East 465 535 34,300 1,080 Climbing FlightAware
02:51PM 38.3040 -119.5060 78° East 467 537 34,900 1,020 Climbing FlightAware
02:51PM 38.3210 -119.4120 77° East 467 537 35,500 900 Climbing FlightAware
02:52PM 38.3370 -119.3160 78° East 467 537 36,000 360 Climbing FlightAware
02:53PM 38.3540 -119.2190 77° East 469 540 36,000  Level FlightAware
02:53PM 38.3680 -119.1360 78° East 469 540 36,000  Level FlightAware
02:54PM 38.3870 -119.0300 77° East 472 543 36,000  Level FlightAware
02:54PM 38.4010 -118.9420 78° East 472 543 36,000  Level FlightAware
02:55PM 38.4170 -118.8510 77° East 471 542 36,000  Level FlightAware
02:56PM 38.4430 -118.6930 78° East 471 542 36,000  Level FlightAware
02:56PM 38.4590 -118.6000 78° East 472 543 36,000  Level FlightAware
02:57PM 38.4750 -118.5020 78° East 472 543 36,000  Level FlightAware
02:58PM 38.4900 -118.4110 78° East 473 544 36,000  Level FlightAware
02:58PM 38.5060 -118.3130 78° East 475 547 36,000  Level FlightAware
02:59PM 38.5210 -118.2240 78° East 474 545 36,000  Level FlightAware
02:59PM 38.5380 -118.1180 78° East 474 545 36,000 60 Level FlightAware
03:00PM 38.5520 -118.0290 79° East 472 543 36,100 240 Climbing FlightAware
03:01PM 38.5690 -117.9260 78° East 470 541 36,300 120 Climbing FlightAware
03:01PM 38.5830 -117.8430 78° East 470 541 36,300  Level FlightAware
03:02PM 38.5970 -117.7600 78° East 470 541 36,300  Level FlightAware
03:02PM 38.6110 -117.6760 78° East 470 541 36,300  Level FlightAware
03:03PM 38.6240 -117.5930 79° East 470 541 36,300  Level FlightAware
03:04PM 38.6380 -117.5140 77° East 470 541 36,300  Level FlightAware
03:04PM 38.6520 -117.4290 78° East 470 541 36,300  Level FlightAware
03:05PM 38.6650 -117.3500 78° East 470 541 36,300  Level FlightAware
03:05PM 38.6790 -117.2670 78° East 470 541 36,300  Level FlightAware
03:06PM 38.6920 -117.1830 79° East 470 541 36,300  Level FlightAware
03:07PM 38.7110 -117.0720 78° East 470 541 36,300  Level FlightAware
03:07PM 38.7250 -116.9890 78° East 470 541 36,300  Level FlightAware
03:08PM 38.7390 -116.9050 78° East 470 541 36,300  Level FlightAware
03:09PM 38.7530 -116.8170 78° East 470 541 36,300  Level FlightAware
03:09PM 38.7670 -116.7340 78° East 470 541 36,300  Level FlightAware
03:10PM 38.7810 -116.6500 78° East 470 541 36,300 420 Level FlightAware
03:11PM 38.8208 -116.2694 78° East 473 544 37,000 360 Climbing Oakland Center
03:12PM 38.8450 -116.1017 79° East 477 549 37,000  Level Oakland Center
03:12PM 38.8589 -116.0017 80° East 477 549 37,000  Level Salt Lake Center
03:13PM 38.8828 -115.8342 80° East 476 548 37,000  Level Salt Lake Center
03:14PM 38.9058 -115.6664 80° East 479 551 37,000  Level Salt Lake Center
03:15PM 38.9333 -115.4997 78° East 476 548 37,000  Level Salt Lake Center
03:16PM 38.9881 -115.3197 69° East 487 560 37,000  Level Salt Lake Center
03:17PM 39.0342 -115.1564 70° East 487 560 37,000  Level Salt Lake Center
03:18PM 39.0819 -114.9958 69° East 483 556 37,000  Level Salt Lake Center
03:19PM 39.1300 -114.8342 69° East 482 555 37,000  Level Salt Lake Center
03:21PM 39.1839 -114.6478 69° East 479 551 37,000  Level Salt Lake Center
03:26PM 39.4320 -113.7720 69° East 480 552 37,000  Level FlightAware
03:26PM 39.4550 -113.6900 70° East 480 552 37,000  Level FlightAware
03:27PM 39.4850 -113.5820 70° East 481 554 37,000  Level FlightAware
03:28PM 39.5110 -113.4890 70° East 483 556 37,000  Level FlightAware
03:28PM 39.5430 -113.3720 70° East 483 556 37,000  Level FlightAware
03:29PM 39.5670 -113.2870 70° East 484 557 37,000  Level FlightAware
03:29PM 39.5815 -113.2320 71° East 487 560 37,000  Level FlightAware ADS-B
03:30PM 39.6062 -113.1420 70° East 488 562 37,000  Level FlightAware ADS-B
03:30PM 39.6294 -113.0570 70° East 489 563 37,000  Level FlightAware ADS-B
03:31PM 39.6522 -112.9720 71° East 488 562 37,000  Level FlightAware ADS-B
03:31PM 39.6747 -112.8890 71° East 489 563 37,000  Level FlightAware ADS-B
03:32PM 39.6974 -112.8050 71° East 490 564 37,000  Level FlightAware ADS-B
03:32PM 39.7200 -112.7210 71° East 491 565 37,000  Level FlightAware ADS-B
03:33PM 39.7430 -112.6350 71° East 491 565 37,000  Level FlightAware ADS-B
03:33PM 39.7654 -112.5510 71° East 492 566 37,000  Level FlightAware ADS-B
03:34PM 39.7877 -112.4670 71° East 493 567 37,000  Level FlightAware ADS-B
03:34PM 39.8098 -112.3830 71° East 495 570 37,000  Level FlightAware ADS-B
03:35PM 39.8320 -112.2980 71° East 496 571 37,000  Level FlightAware ADS-B
03:35PM 39.8547 -112.2120 71° East 496 571 37,000  Level FlightAware ADS-B
03:36PM 39.8769 -112.1270 71° East 497 572 37,000  Level FlightAware ADS-B
03:36PM 39.8999 -112.0390 71° East 497 572 37,000  Level FlightAware ADS-B
03:37PM 39.9223 -111.9530 71° East 497 572 37,000  Level FlightAware ADS-B
03:37PM 39.9449 -111.8650 71° East 497 572 37,000  Level FlightAware ADS-B
03:38PM 39.9670 -111.7800 71° East 496 571 37,000  Level FlightAware ADS-B
03:38PM 39.9905 -111.6880 72° East 496 571 37,000  Level FlightAware ADS-B
03:39PM 40.0141 -111.5960 71° East 496 571 37,000  Level FlightAware ADS-B
03:40PM 40.0367 -111.5080 71° East 496 571 37,000  Level FlightAware ADS-B
03:40PM 40.0587 -111.4210 72° East 495 570 37,000  Level FlightAware ADS-B
03:41PM 40.0803 -111.3360 72° East 496 571 37,000  Level FlightAware ADS-B
03:41PM 40.1018 -111.2510 72° East 496 571 37,000  Level FlightAware ADS-B
03:42PM 40.1239 -111.1630 72° East 496 571 37,000  Level FlightAware ADS-B
03:42PM 40.1459 -111.0750 72° East 496 571 37,000  Level FlightAware ADS-B
03:43PM 40.1701 -110.9780 72° East 495 570 37,000  Level FlightAware ADS-B
03:43PM 40.1914 -110.8920 72° East 496 571 37,000  Level FlightAware ADS-B
03:44PM 40.2128 -110.8060 72° East 497 572 37,000  Level FlightAware ADS-B
03:44PM 40.2345 -110.7180 72° East 497 572 37,000 240 Level FlightAware ADS-B
03:45PM 40.2564 -110.6290 72° East 495 570 37,300 660 Climbing FlightAware ADS-B
03:45PM 40.2776 -110.5420 72° East 497 572 37,700 660 Climbing FlightAware ADS-B
03:46PM 40.2986 -110.4560 72° East 495 570 38,000 240 Climbing FlightAware ADS-B
03:46PM 40.3200 -110.3680 72° East 493 567 38,000  Level FlightAware ADS-B
03:47PM 40.3486 -110.2500 72° East 493 567 38,000  Level FlightAware ADS-B
03:47PM 40.3716 -110.1550 72° East 493 567 38,000  Level FlightAware ADS-B
03:48PM 40.3910 -110.0760 72° East 494 568 38,000  Level FlightAware
03:49PM 40.4160 -109.9690 73° East 495 570 38,000  Level FlightAware
03:49PM 40.4440 -109.8530 72° East 496 571 38,000  Level FlightAware
03:50PM 40.4650 -109.7670 72° East 496 571 38,000  Level FlightAware
03:50PM 40.4920 -109.6470 73° East 498 573 38,000  Level FlightAware
03:51PM 40.5130 -109.5600 72° East 497 572 38,000  Level FlightAware
03:52PM 40.5370 -109.4570 73° East 496 571 38,000  Level FlightAware
03:52PM 40.5640 -109.3430 73° East 496 571 38,000  Level FlightAware
03:53PM 40.5880 -109.2360 74° East 494 568 38,000  Level FlightAware
03:53PM 40.6120 -109.1330 73° East 495 570 38,000  Level FlightAware
03:54PM 40.6370 -109.0220 73° East 493 567 38,000  Level FlightAware
03:55PM 40.6600 -108.9230 73° East 492 566 38,000  Level FlightAware
03:55PM 40.6780 -108.8030 79° East 494 568 38,000  Level FlightAware
03:56PM 40.6900 -108.6720 83° East 494 568 38,000  Level FlightAware
03:57PM 40.6990 -108.5840 82° East 494 568 38,000  Level FlightAware
03:57PM 40.7100 -108.4750 82° East 493 567 38,000  Level FlightAware
03:58PM 40.7210 -108.3630 83° East 495 570 38,000  Level FlightAware
03:58PM 40.7320 -108.2450 83° East 495 570 38,000  Level FlightAware
03:59PM 40.7420 -108.1480 82° East 494 568 38,000 120 Level FlightAware
04:00PM 40.7630 -108.0390 76° East 491 565 38,200 600 Climbing FlightAware
04:00PM 40.7920 -107.9320 70° East 490 564 38,700 660 Climbing FlightAware
04:01PM 40.8170 -107.8390 70° East 491 565 39,000 240 Climbing FlightAware
04:01PM 40.8440 -107.7370 71° East 485 558 39,000  Level FlightAware
04:02PM 40.8710 -107.6350 71° East 481 554 39,000  Level FlightAware
04:03PM 40.8940 -107.5480 71° East 480 552 39,000  Level FlightAware
04:04PM 40.9370 -107.3920 70° East 482 555 39,000  Level FlightAware
04:04PM 40.9660 -107.2830 71° East 485 558 39,000  Level FlightAware
04:05PM 40.9890 -107.1980 70° East 485 558 39,000  Level FlightAware
04:05PM 41.0130 -107.1120 70° East 485 558 39,000  Level FlightAware
04:06PM 41.0390 -107.0170 70° East 485 558 39,000  Level FlightAware
04:07PM 41.0620 -106.9320 70° East 485 558 39,000  Level FlightAware
04:07PM 41.1050 -106.7490 73° East 496 571 39,000  Level FlightAware
04:08PM 41.1400 -106.6140 71° East 497 572 39,000  Level FlightAware
04:09PM 41.1630 -106.5260 71° East 497 572 39,000  Level FlightAware
04:09PM 41.1860 -106.4370 71° East 497 572 39,000  Level FlightAware
04:10PM 41.2220 -106.2950 71° East 497 572 39,000  Level FlightAware
04:11PM 41.2500 -106.1870 71° East 497 572 39,000  Level FlightAware
04:11PM 41.2780 -106.0740 72° East 492 566 39,000  Level FlightAware
04:12PM 41.3060 -105.9600 72° East 490 564 39,000  Level FlightAware
04:12PM 41.3310 -105.8600 72° East 489 563 39,000  Level FlightAware
04:13PM 41.3570 -105.7570 71° East 488 562 39,000  Level FlightAware
04:14PM 41.3800 -105.6660 71° East 487 560 39,000  Level FlightAware
04:14PM 41.4020 -105.5760 72° East 488 562 39,000  Level FlightAware
04:15PM 41.4280 -105.4700 72° East 487 560 39,000  Level FlightAware
04:15PM 41.4490 -105.3840 72° East 486 559 39,000  Level FlightAware
04:16PM 41.4780 -105.2620 72° East 485 558 39,000  Level FlightAware
04:16PM 41.5000 -105.1710 72° East 485 558 39,000  Level FlightAware
04:17PM 41.5110 -105.1280 71° East 485 558 39,000  Level FlightAware ADS-B
04:17PM 41.5320 -105.0410 72° East 485 558 39,000  Level FlightAware ADS-B
04:18PM 41.5525 -104.9550 72° East 486 559 39,000  Level FlightAware ADS-B
04:18PM 41.5733 -104.8680 72° East 488 562 39,000  Level FlightAware ADS-B
04:19PM 41.5947 -104.7790 72° East 489 563 39,000  Level FlightAware ADS-B
04:19PM 41.6154 -104.6910 73° East 490 564 39,000  Level FlightAware ADS-B
04:20PM 41.6373 -104.5980 72° East 490 564 39,000  Level FlightAware ADS-B
04:20PM 41.6602 -104.5010 72° East 491 565 39,000  Level FlightAware ADS-B
04:21PM 41.6806 -104.4140 73° East 492 566 39,000  Level FlightAware ADS-B
04:21PM 41.7034 -104.3490 65° Northeast 488 562 39,000  Level FlightAware ADS-B
04:21PM 41.7101 -104.3360 55° Northeast 486 559 39,000  Level FlightAware ADS-B
04:22PM 41.7380 -104.2920 50° Northeast 480 552 39,000  Level FlightAware ADS-B
04:22PM 41.7544 -104.2730 41° Northeast 476 548 39,000  Level FlightAware ADS-B
04:22PM 41.7739 -104.2560 33° Northeast 471 542 39,000  Level FlightAware ADS-B
04:23PM 41.8455 -104.2140 24° Northeast 466 536 39,000  Level FlightAware ADS-B
04:23PM 41.9085 -104.1820 21° North 466 536 39,000  Level FlightAware ADS-B
04:24PM 41.9866 -104.1420 21° North 466 536 39,000  Level FlightAware ADS-B
04:24PM 42.0484 -104.1090 22° Northeast 467 537 39,000  Level FlightAware ADS-B
04:25PM 42.1054 -104.0790 21° North 467 537 39,000  Level FlightAware ADS-B
04:25PM 42.1271 -104.0650 26° Northeast 474 545 39,000  Level FlightAware ADS-B
04:25PM 42.1442 -104.0490 35° Northeast 477 549 39,000  Level FlightAware ADS-B
04:25PM 42.1729 -104.0110 44° Northeast 484 557 39,000  Level FlightAware ADS-B
04:25PM 42.1831 -103.9910 55° Northeast 487 560 39,000  Level FlightAware ADS-B
04:26PM 42.1925 -103.9680 61° Northeast 490 564 39,000  Level FlightAware ADS-B
04:26PM 42.2026 -103.9300 70° East 494 568 39,000  Level FlightAware ADS-B
04:26PM 42.2042 -103.9210 77° East 494 568 39,000  Level FlightAware ADS-B
04:26PM 42.2077 -103.8830 83° East 495 570 39,000  Level FlightAware ADS-B
04:27PM 42.2104 -103.7780 88° East 495 570 39,000  Level FlightAware ADS-B
04:27PM 42.2119 -103.6810 89° East 495 570 39,000  Level FlightAware ADS-B
04:28PM 42.2134 -103.5880 89° East 495 570 39,000  Level FlightAware ADS-B
04:28PM 42.2174 -103.4950 87° East 496 571 39,000  Level FlightAware ADS-B
04:29PM 42.2249 -103.3990 84° East 494 568 39,000  Level FlightAware ADS-B
04:29PM 42.2324 -103.3060 84° East 493 567 39,000  Level FlightAware ADS-B
04:30PM 42.2398 -103.2150 84° East 493 567 39,000  Level FlightAware ADS-B
04:30PM 42.2473 -103.1230 84° East 493 567 39,000  Level FlightAware ADS-B
04:31PM 42.2554 -103.0220 84° East 493 567 39,000  Level FlightAware ADS-B
04:31PM 42.2631 -102.9250 84° East 492 566 39,000  Level FlightAware ADS-B
04:32PM 42.2704 -102.8310 84° East 492 566 39,000  Level FlightAware ADS-B
04:32PM 42.2779 -102.7340 84° East 492 566 39,000  Level FlightAware ADS-B
04:33PM 42.2850 -102.6410 84° East 491 565 39,000  Level FlightAware ADS-B
04:34PM 42.2969 -102.4830 84° East 490 564 39,000  Level FlightAware ADS-B
04:35PM 42.3192 -102.1770 84° East 489 563 39,000  Level FlightAware ADS-B
04:36PM 42.3325 -102.0161 84° East 487 560 39,000  Level Denver Center
04:37PM 42.3439 -101.8339 85° East 488 562 39,000  Level Denver Center
04:38PM 42.3553 -101.6600 85° East 486 559 39,000  Level Denver Center
04:39PM 42.3683 -101.4594 85° East 480 552 39,000  Level Denver Center
04:40PM 42.3806 -101.2847 85° East 484 557 39,000  Level Denver Center
04:42PM 42.3919 -101.0875 85° East 472 543 39,000  Level Denver Center
04:43PM 42.4019 -100.9183 85° East 470 541 39,000  Level Denver Center
04:44PM 42.4131 -100.7464 85° East 477 549 39,000  Level Denver Center
04:45PM 42.4244 -100.5467 86° East 477 549 39,000  Level Denver Center
04:46PM 42.4336 -100.3753 86° East 478 550 39,000  Level Denver Center
04:47PM 42.4453 -100.1756 85° East 476 548 39,000  Level Denver Center
04:48PM 42.4547 -99.9922 86° East 476 548 39,000  Level Denver Center
04:49PM 42.4642 -99.8128 86° East 477 549 39,000  Level Denver Center
04:50PM 42.4733 -99.6342 86° East 475 547 39,000  Level Denver Center
04:51PM 42.4825 -99.4556 86° East 475 547 39,000  Level Denver Center
04:52PM 42.4911 -99.2739 86° East 479 551 39,000  Level Denver Center
04:53PM 42.4989 -99.0953 87° East 476 548 39,000  Level Denver Center
04:54PM 42.5072 -98.8811 87° East 473 544 39,000  Level Denver Center
04:55PM 42.5150 -98.7011 87° East 476 548 39,000  Level Denver Center
05:01PM 42.5540 -97.6280 87° East 480 552 39,000  Level FlightAware
05:01PM 42.5570 -97.5300 88° East 481 554 39,000  Level FlightAware
05:02PM 42.5610 -97.4150 87° East 481 554 39,000  Level FlightAware
05:03PM 42.5640 -97.3000 88° East 480 552 39,000  Level FlightAware
05:03PM 42.5680 -97.1670 88° East 480 552 39,000  Level FlightAware
05:04PM 42.5710 -97.0610 88° East 478 550 39,000  Level FlightAware
05:05PM 42.5740 -96.9510 88° East 470 541 39,000  Level FlightAware
05:05PM 42.5760 -96.8630 88° East 469 540 39,000  Level FlightAware
05:06PM 42.5790 -96.7480 88° East 469 540 39,000  Level FlightAware
05:06PM 42.5810 -96.6540 88° East 469 540 39,000  Level FlightAware
05:07PM 42.5840 -96.5350 88° East 472 543 39,000  Level FlightAware
05:08PM 42.5860 -96.4440 88° East 472 543 39,000  Level FlightAware
05:08PM 42.5880 -96.3330 89° East 472 543 39,000  Level FlightAware
05:09PM 42.5900 -96.2400 88° East 472 543 39,000  Level FlightAware
05:09PM 42.5920 -96.1310 89° East 471 542 39,000  Level FlightAware
05:10PM 42.5940 -96.0280 88° East 471 542 39,000  Level FlightAware
05:10PM 42.5950 -95.9320 89° East 470 541 39,000  Level FlightAware
05:11PM 42.5970 -95.8230 89° East 469 540 39,000  Level FlightAware
05:12PM 42.5990 -95.7270 88° East 468 539 39,000  Level FlightAware
05:12PM 42.6000 -95.6100 89° East 467 537 39,000  Level FlightAware
05:13PM 42.6020 -95.5100 88° East 465 535 39,000  Level FlightAware
05:13PM 42.6030 -95.3940 89° East 464 534 39,000  Level FlightAware
05:14PM 42.6040 -95.2890 89° East 464 534 39,000  Level FlightAware
05:15PM 42.6050 -95.1860 89° East 463 533 39,000  Level FlightAware
05:15PM 42.6060 -95.0870 89° East 463 533 39,000  Level FlightAware
05:16PM 42.6070 -94.9810 89° East 463 533 39,000  Level FlightAware
05:16PM 42.6080 -94.8850 89° East 463 533 39,000  Level FlightAware
05:17PM 42.6090 -94.7800 89° East 463 533 39,000  Level FlightAware
05:18PM 42.6090 -94.6840 90° East 463 533 39,000  Level FlightAware
05:18PM 42.6100 -94.5790 89° East 464 534 39,000  Level FlightAware
05:19PM 42.6110 -94.4770 89° East 466 536 39,000  Level FlightAware
05:19PM 42.6110 -94.3860 90° East 468 539 39,000  Level FlightAware
05:20PM 42.6130 -94.2740 89° East 468 539 39,000  Level FlightAware
05:20PM 42.6130 -94.1730 90° East 471 542 39,000  Level FlightAware
05:21PM 42.6130 -94.0670 90° East 473 544 39,000  Level FlightAware
05:22PM 42.6130 -93.9670 90° East 474 545 39,000  Level FlightAware
05:22PM 42.6140 -93.8650 89° East 474 545 39,000  Level FlightAware
05:23PM 42.6150 -93.7590 89° East 474 545 39,000  Level FlightAware
05:23PM 42.6150 -93.6510 90° East 475 547 39,000  Level FlightAware
05:24PM 42.6160 -93.5550 89° East 475 547 39,000  Level FlightAware
05:25PM 42.6160 -93.4450 90° East 474 545 39,000  Level FlightAware
05:25PM 42.6170 -93.3370 89° East 473 544 39,000  Level FlightAware
05:26PM 42.6170 -93.2430 90° East 471 542 39,000  Level FlightAware
05:26PM 42.6170 -93.1300 90° East 469 540 39,000  Level FlightAware
05:27PM 42.6170 -93.0430 90° East 468 539 39,000  Level FlightAware
05:27PM 42.6160 -92.9340 91° East 466 536 39,000  Level FlightAware
05:28PM 42.6160 -92.8120 90° East 465 535 39,000  Level FlightAware
05:29PM 42.6160 -92.7060 90° East 464 534 39,000  Level FlightAware
05:29PM 42.6150 -92.6060 91° East 467 537 39,000  Level FlightAware
05:30PM 42.6150 -92.4950 90° East 472 543 39,000  Level FlightAware
05:31PM 42.6140 -92.3930 91° East 477 549 39,000  Level FlightAware
05:31PM 42.6130 -92.2960 91° East 479 551 39,000  Level FlightAware
05:32PM 42.6130 -92.1900 90° East 482 555 39,000  Level FlightAware
05:32PM 42.6120 -92.0810 91° East 483 556 39,000  Level FlightAware
05:33PM 42.6110 -91.9890 91° East 483 556 39,000  Level FlightAware
05:33PM 42.6090 -91.8720 91° East 485 558 39,000  Level FlightAware
05:34PM 42.6080 -91.7580 91° East 486 559 39,000  Level FlightAware
05:35PM 42.6070 -91.6530 91° East 485 558 39,000  Level FlightAware
05:35PM 42.6050 -91.5570 92° East 484 557 39,000  Level FlightAware
05:36PM 42.6040 -91.4440 91° East 482 555 39,000  Level FlightAware
05:36PM 42.6020 -91.3350 91° East 480 552 39,000  Level FlightAware
05:37PM 42.6000 -91.2350 92° East 477 549 39,000  Level FlightAware
05:38PM 42.5990 -91.1320 91° East 475 547 39,000  Level FlightAware
05:38PM 42.5970 -91.0260 91° East 472 543 39,000  Level FlightAware
05:39PM 42.5950 -90.9350 92° East 470 541 39,000  Level FlightAware
05:39PM 42.5930 -90.8270 91° East 467 537 39,000  Level FlightAware
05:40PM 42.5900 -90.7160 92° East 466 536 39,000  Level FlightAware
05:40PM 42.5880 -90.6230 92° East 465 535 39,000  Level FlightAware
05:41PM 42.5860 -90.5290 92° East 464 534 39,000  Level FlightAware
05:42PM 42.5840 -90.4270 91° East 464 534 39,000  Level FlightAware
05:42PM 42.5810 -90.3100 92° East 464 534 39,000  Level FlightAware
05:43PM 42.5790 -90.2170 92° East 464 534 39,000  Level FlightAware
05:43PM 42.5770 -90.1350 92° East 464 534 39,000  Level FlightAware
05:44PM 42.5740 -90.0330 92° East 464 534 39,000  Level FlightAware
05:44PM 42.5710 -89.9270 92° East 464 534 39,000  Level FlightAware
05:45PM 42.5680 -89.8230 92° East 464 534 39,000  Level FlightAware
05:46PM 42.5650 -89.7200 92° East 464 534 39,000  Level FlightAware
05:46PM 42.5620 -89.6250 92° East 464 534 39,000  Level FlightAware
05:47PM 42.5590 -89.5200 92° East 464 534 39,000  Level FlightAware
05:47PM 42.5550 -89.4170 93° East 464 534 39,000  Level FlightAware
05:48PM 42.5520 -89.3190 92° East 463 533 39,000  Level FlightAware
05:48PM 42.5490 -89.2200 92° East 465 535 39,000  Level FlightAware
05:49PM 42.5450 -89.1200 93° East 469 540 39,000  Level FlightAware
05:50PM 42.5420 -89.0200 92° East 470 541 39,000  Level FlightAware
05:50PM 42.5380 -88.9140 93° East 470 541 39,000  Level FlightAware
05:51PM 42.5340 -88.8090 93° East 470 541 39,000  Level FlightAware
05:51PM 42.5300 -88.7150 93° East 470 541 39,000  Level FlightAware
05:52PM 42.5250 -88.5980 93° East 470 541 39,000  Level FlightAware
05:53PM 42.5210 -88.4960 93° East 470 541 39,000  Level FlightAware
05:53PM 42.5170 -88.3930 93° East 468 539 39,000  Level FlightAware
05:54PM 42.5130 -88.2970 93° East 468 539 39,000  Level FlightAware
05:54PM 42.5080 -88.1910 94° East 469 540 39,000  Level FlightAware
05:55PM 42.5050 -88.1040 93° East 469 540 39,000  Level FlightAware
05:56PM 42.5000 -87.9820 93° East 468 539 39,000  Level FlightAware
05:56PM 42.5000 -87.8880 90° East 467 537 39,000  Level FlightAware
05:57PM 42.5000 -87.7830 90° East 466 536 39,000  Level FlightAware
05:57PM 42.5000 -87.6770 90° East 465 535 39,000  Level FlightAware
05:58PM 42.4990 -87.5840 91° East 466 536 39,000  Level FlightAware
05:58PM 42.4990 -87.4720 90° East 465 535 39,000  Level FlightAware
05:59PM 42.4980 -87.3500 91° East 465 535 39,000  Level FlightAware
06:00PM 42.4980 -87.2630 90° East 465 535 39,000  Level FlightAware
06:00PM 42.4970 -87.1600 91° East 464 534 39,000  Level FlightAware
06:01PM 42.4960 -87.0450 91° East 464 534 39,000  Level FlightAware
06:01PM 42.4960 -86.9570 90° East 463 533 39,000  Level FlightAware
06:02PM 42.4950 -86.8460 91° East 463 533 39,000  Level FlightAware
06:03PM 42.4940 -86.7640 91° East 463 533 39,000  Level FlightAware
06:03PM 42.4920 -86.6420 91° East 464 534 39,000  Level FlightAware
06:04PM 42.4910 -86.5460 91° East 464 534 39,000  Level FlightAware
06:04PM 42.4900 -86.4420 91° East 465 535 39,000  Level FlightAware
06:05PM 42.4880 -86.3350 91° East 466 536 39,000  Level FlightAware
06:06PM 42.4870 -86.2440 91° East 467 537 39,000  Level FlightAware
06:06PM 42.4850 -86.1320 91° East 467 537 39,000  Level FlightAware
06:07PM 42.4840 -86.0340 91° East 467 537 39,000  Level FlightAware
06:07PM 42.4820 -85.9330 92° East 466 536 39,000  Level FlightAware
06:08PM 42.4800 -85.8340 92° East 465 535 39,000  Level FlightAware
06:08PM 42.4780 -85.7340 92° East 464 534 39,000  Level FlightAware
06:09PM 42.4760 -85.6340 92° East 464 534 39,000  Level FlightAware
06:10PM 42.4740 -85.5230 91° East 464 534 39,000  Level FlightAware
06:10PM 42.4720 -85.4160 91° East 464 534 39,000  Level FlightAware
06:11PM 42.4700 -85.3270 92° East 464 534 39,000  Level FlightAware
06:11PM 42.4670 -85.2250 92° East 463 533 39,000  Level FlightAware
06:12PM 42.4650 -85.1170 91° East 461 531 39,000  Level FlightAware
06:13PM 42.4620 -85.0190 92° East 459 528 39,000  Level FlightAware
06:13PM 42.4600 -84.9270 92° East 459 528 39,000  Level FlightAware
06:14PM 42.4570 -84.8180 92° East 458 527 39,000  Level FlightAware
06:14PM 42.4530 -84.7000 93° East 459 528 39,000  Level FlightAware
06:15PM 42.4500 -84.5950 92° East 459 528 39,000  Level FlightAware
06:16PM 42.4480 -84.5030 92° East 459 528 39,000  Level FlightAware
06:16PM 42.4450 -84.4070 92° East 459 528 39,000  Level FlightAware
06:17PM 42.4410 -84.2970 93° East 457 526 39,000  Level FlightAware
06:17PM 42.4380 -84.1950 92° East 457 526 39,000  Level FlightAware
06:18PM 42.4350 -84.0940 92° East 457 526 39,000  Level FlightAware
06:18PM 42.4310 -84.0010 93° East 456 525 39,000  Level FlightAware
06:19PM 42.4280 -83.9000 92° East 456 525 39,000  Level FlightAware
06:20PM 42.4240 -83.8010 93° East 457 526 39,000  Level FlightAware
06:20PM 42.4200 -83.6900 93° East 457 526 39,000  Level FlightAware
06:21PM 42.4170 -83.5980 92° East 457 526 39,000  Level FlightAware
06:21PM 42.4130 -83.5000 93° East 456 525 39,000  Level FlightAware
06:22PM 42.4090 -83.4000 93° East 455 524 39,000  Level FlightAware
06:23PM 42.4050 -83.2970 93° East 455 524 39,000  Level FlightAware
06:23PM 42.4010 -83.2020 93° East 454 522 39,000  Level FlightAware
06:24PM 42.3970 -83.1110 93° East 453 521 39,000  Level FlightAware
06:24PM 42.3920 -83.0010 93° East 452 520 39,000  Level FlightAware
06:25PM 42.3880 -82.9110 93° East 451 519 39,000  Level FlightAware
06:25PM 42.3840 -82.8080 93° East 450 518 39,000  Level FlightAware
06:26PM 42.3800 -82.7150 93° East 449 517 39,000  Level FlightAware
06:27PM 42.3760 -82.6170 93° East 449 517 39,000  Level FlightAware
06:27PM 42.3720 -82.5180 93° East 447 514 39,000  Level FlightAware
06:28PM 42.3680 -82.4170 93° East 446 513 39,000  Level FlightAware
06:28PM 42.3640 -82.3180 93° East 446 513 39,000  Level FlightAware
06:29PM 42.3590 -82.2040 93° East 447 514 39,000  Level FlightAware
06:30PM 42.3570 -82.1450 93° East 448 516 39,000  Level FlightAware
06:30PM 42.3500 -82.0010 94° East 458 527 39,000  Level FlightAware
06:31PM 42.3460 -81.9070 93° East 465 535 39,000  Level FlightAware
06:32PM 42.3420 -81.8030 93° East 470 541 39,000  Level FlightAware
06:32PM 42.3380 -81.7200 94° East 471 542 39,000  Level FlightAware
06:33PM 42.3330 -81.6060 93° East 474 545 39,000  Level FlightAware
06:33PM 42.3270 -81.4940 94° East 479 551 39,000  Level FlightAware
06:34PM 42.3220 -81.3770 93° East 481 554 39,000  Level FlightAware
06:34PM 42.3170 -81.2900 94° East 483 556 39,000  Level FlightAware
06:35PM 42.3120 -81.1910 94° East 484 557 39,000  Level FlightAware
06:36PM 42.3060 -81.0700 94° East 485 558 39,000  Level FlightAware
06:36PM 42.2990 -80.9280 94° East 487 560 39,000  Level FlightAware
06:37PM 42.2930 -80.8240 94° East 486 559 39,000  Level FlightAware
06:38PM 42.2880 -80.7220 94° East 486 559 39,000  Level FlightAware
06:38PM 42.2820 -80.6160 94° East 487 560 39,000  Level FlightAware
06:39PM 42.2760 -80.5030 94° East 487 560 39,000  Level FlightAware
06:39PM 42.2700 -80.4040 95° East 486 559 39,000  Level FlightAware
06:40PM 42.2630 -80.2920 95° East 487 560 39,000  Level FlightAware
06:41PM 42.2560 -80.1700 94° East 489 563 39,000  Level FlightAware
06:41PM 42.2490 -80.0550 95° East 490 564 39,000  Level FlightAware
06:42PM 42.2440 -79.9690 94° East 491 565 39,000  Level FlightAware
06:42PM 42.2370 -79.8560 95° East 493 567 39,000  Level FlightAware
06:43PM 42.2290 -79.7310 95° East 495 570 39,000  Level FlightAware
06:44PM 42.2210 -79.6100 95° East 497 572 39,000  Level FlightAware
06:44PM 42.2130 -79.4880 95° East 499 574 39,000  Level FlightAware
06:45PM 42.2060 -79.3770 95° East 500 575 39,000  Level FlightAware
06:45PM 42.1990 -79.2780 95° East 502 578 39,000  Level FlightAware
06:46PM 42.1910 -79.1660 95° East 499 574 39,000  Level FlightAware
06:46PM 42.1740 -79.0640 103° East 494 568 39,000  Level FlightAware
06:47PM 42.1490 -78.9600 108° East 493 567 39,000  Level FlightAware
06:48PM 42.1230 -78.8550 108° East 493 567 39,000  Level FlightAware
06:48PM 42.0960 -78.7490 109° East 493 567 39,000  Level FlightAware
06:49PM 42.0700 -78.6500 109° East 493 567 39,000  Level FlightAware
06:49PM 42.0470 -78.5570 108° East 493 567 39,000  Level FlightAware
06:50PM 42.0210 -78.4540 109° East 492 566 39,000  Level FlightAware
06:51PM 41.9890 -78.3310 109° East 492 566 39,000  Level FlightAware
06:51PM 41.9620 -78.2250 109° East 493 567 39,000  Level FlightAware
06:52PM 41.9360 -78.1270 110° East 495 570 39,000  Level FlightAware
06:52PM 41.9090 -78.0220 109° East 495 570 39,000  Level FlightAware
06:53PM 41.8830 -77.9200 109° East 496 571 39,000  Level FlightAware
06:54PM 41.8580 -77.8260 110° East 498 573 39,000  Level FlightAware
06:54PM 41.8300 -77.7200 109° East 498 573 39,000  Level FlightAware
06:55PM 41.8030 -77.6150 109° East 499 574 39,000  Level FlightAware
06:55PM 41.7780 -77.5240 110° East 501 577 39,000  Level FlightAware
06:56PM 41.7500 -77.4190 110° East 501 577 39,000  Level FlightAware
06:57PM 41.7220 -77.3120 109° East 502 578 39,000  Level FlightAware
06:57PM 41.6940 -77.2060 109° East 504 580 39,000  Level FlightAware
06:58PM 41.6690 -77.1150 110° East 507 583 39,000  Level FlightAware
06:58PM 41.6390 -77.0030 110° East 510 587 39,000  Level FlightAware
06:59PM 41.6210 -76.9383 110° East 512 589 39,000  Level FlightAware ADS-B
06:59PM 41.5966 -76.8485 110° East 514 592 39,000  Level FlightAware ADS-B
07:00PM 41.5718 -76.7580 110° East 516 594 39,000  Level FlightAware ADS-B
07:00PM 41.5435 -76.6548 110° East 518 596 39,000 -240 Level FlightAware ADS-B
07:01PM 41.5185 -76.5640 110° East 519 597 38,800 -780 Descending FlightAware ADS-B
07:01PM 41.4927 -76.4710 110° East 523 602 38,200 -1,080 Descending FlightAware ADS-B
07:02PM 41.4658 -76.3744 110° East 524 603 37,700 -1,080 Descending FlightAware ADS-B
07:02PM 41.4391 -76.2782 110° East 521 600 37,100 -1,080 Descending FlightAware ADS-B
07:03PM 41.4132 -76.1855 110° East 519 597 36,600 -1,140 Descending FlightAware ADS-B
07:03PM 41.3843 -76.0828 111° Southeast 519 597 35,900 -1,860 Descending FlightAware ADS-B
07:04PM 41.3589 -75.9926 111° Southeast 521 600 34,600 -2,760 Descending FlightAware ADS-B
07:04PM 41.3317 -75.8962 111° Southeast 517 595 33,100 -3,060 Descending FlightAware ADS-B
07:05PM 41.3058 -75.8052 111° Southeast 517 595 31,400 -3,240 Descending FlightAware ADS-B
07:06PM 41.2782 -75.7101 111° Southeast 508 585 29,700 -3,300 Descending FlightAware ADS-B
07:06PM 41.2502 -75.6214 113° Southeast 503 579 27,900 -3,060 Descending FlightAware ADS-B
07:07PM 41.2221 -75.5367 114° Southeast 491 565 26,600 -2,700 Descending FlightAware ADS-B
07:07PM 41.1944 -75.4540 114° Southeast 479 551 25,200 -2,760 Descending FlightAware ADS-B
07:08PM 41.1646 -75.3653 114° Southeast 470 541 23,700 -2,040 Descending FlightAware ADS-B
07:08PM 41.1382 -75.2872 114° Southeast 462 532 23,100 -720 Descending FlightAware ADS-B
07:09PM 41.1109 -75.2068 114° Southeast 468 539 23,000 -120 Descending FlightAware ADS-B
07:09PM 41.0833 -75.1254 114° Southeast 469 540 23,000  Level FlightAware ADS-B
07:10PM 41.0564 -75.0461 114° Southeast 471 542 23,000  Level FlightAware ADS-B
07:10PM 41.0289 -74.9654 114° Southeast 470 541 23,000  Level FlightAware ADS-B
07:11PM 41.0041 -74.8862 113° Southeast 472 543 23,000  Level FlightAware ADS-B
07:11PM 40.9943 -74.8404 106° East 473 544 23,000  Level FlightAware ADS-B
07:11PM 40.9829 -74.7550 100° East 474 545 23,000 -240 Level FlightAware ADS-B
07:12PM 40.9730 -74.6631 98° East 473 544 22,800 -1,080 Descending FlightAware ADS-B
07:12PM 40.9636 -74.5740 98° East 468 539 21,900 -2,280 Descending FlightAware ADS-B
07:13PM 40.9540 -74.4835 98° East 457 526 20,400 -2,580 Descending FlightAware ADS-B
07:14PM 40.9447 -74.3991 98° East 451 519 19,200 -1,560 Descending FlightAware ADS-B
07:14PM 40.9377 -74.3360 98° East 448 516 19,000 -420 Descending FlightAware ADS-B
07:14PM 40.9355 -74.3169 99° East 445 512 19,000  Level FlightAware ADS-B
07:15PM 40.9266 -74.2374 98° East 410 472 19,000  Level FlightAware ADS-B
07:15PM 40.9215 -74.1968 99° East 390 449 19,000  Level FlightAware ADS-B
07:15PM 40.9171 -74.1765 106° East 378 435 19,000  Level FlightAware ADS-B
07:15PM 40.9166 -74.1746 109° East 436 502 19,000  Level FlightAware ADS-B
07:15PM 40.9139 -74.1659 112° Southeast 372 428 19,000  Level FlightAware ADS-B
07:15PM 40.9081 -74.1506 117° Southeast 362 417 19,000  Level FlightAware ADS-B
07:15PM 40.9051 -74.1443 122° Southeast 357 411 19,000 -600 Level FlightAware ADS-B
07:15PM 40.8984 -74.1324 127° Southeast 349 402 18,900 -960 Descending FlightAware ADS-B
07:15PM 40.8923 -74.1235 132° Southeast 345 397 18,800 -1,440 Descending FlightAware ADS-B
07:16PM 40.8840 -74.1137 138° Southeast 339 390 18,600 -1,500 Descending FlightAware ADS-B
07:16PM 40.8828 -74.1125 143° Southeast 337 388 18,600 -1,500 Level FlightAware ADS-B
07:16PM 40.8745 -74.1047 145° Southeast 332 382 18,400 -2,280 Descending FlightAware ADS-B
07:16PM 40.8726 -74.1033 151° Southeast 331 381 18,300 -2,280 Descending FlightAware ADS-B
07:16PM 40.8632 -74.0972 154° Southeast 326 375 18,100 -1,500 Descending FlightAware ADS-B
07:16PM 40.8618 -74.0965 159° South 326 375 18,100 -1,500 Level FlightAware ADS-B
07:16PM 40.8576 -74.0944 159° South 324 373 18,000 -2,220 Descending FlightAware ADS-B
07:16PM 40.8154 -74.0786 164° South 320 368 16,900 -2,160 Descending FlightAware ADS-B
07:16PM 40.8131 -74.0778 165° South 320 368 16,900 -1,740 Level FlightAware ADS-B
07:17PM 40.7696 -74.0629 165° South 318 366 16,000 -1,740 Descending FlightAware ADS-B
07:17PM 40.7677 -74.0622 164° South 318 366 16,000 -600 Level FlightAware ADS-B
07:18PM 40.7225 -74.0474 166° South 315 362 15,700 -780 Descending FlightAware ADS-B
07:18PM 40.7204 -74.0466 164° South 317 365 15,600 -1,440 Descending FlightAware ADS-B
07:18PM 40.6741 -74.0312 166° South 310 357 14,900 -1,380 Descending FlightAware ADS-B
07:19PM 40.6276 -74.0155 166° South 304 350 14,100 -1,380 Descending FlightAware ADS-B
07:19PM 40.5976 -74.0045 164° South 302 348 13,600 -1,440 Descending FlightAware ADS-B
07:19PM 40.5796 -73.9898 148° Southeast 301 346 13,200 -1,800 Descending FlightAware ADS-B
07:20PM 40.5643 -73.9704 136° Southeast 301 346 12,700 -2,280 Descending FlightAware ADS-B
07:20PM 40.5349 -73.9308 134° Southeast 303 349 11,500 -2,160 Descending FlightAware ADS-B
07:21PM 40.5033 -73.8892 135° Southeast 301 346 10,500 -1,800 Descending FlightAware ADS-B
07:21PM 40.4863 -73.8668 135° Southeast 299 344 10,000 -1,680 Descending FlightAware ADS-B
07:21PM 40.4716 -73.8475 135° Southeast 298 343 9,600 -1,800 Descending FlightAware ADS-B
07:21PM 40.4597 -73.8312 134° Southeast 297 342 9,200 -1,680 Descending FlightAware ADS-B
07:21PM 40.4550 -73.8234 128° Southeast 299 344 9,100 -1,140 Descending FlightAware ADS-B
07:22PM 40.4480 -73.8077 120° Southeast 299 344 8,900 -1,440 Descending FlightAware ADS-B
07:22PM 40.4386 -73.7825 116° Southeast 297 342 8,500 -1,380 Descending FlightAware ADS-B
07:22PM 40.4293 -73.7575 116° Southeast 296 341 8,200 -1,080 Descending FlightAware ADS-B
07:22PM 40.4147 -73.7184 116° Southeast 297 342 7,800 -360 Descending FlightAware ADS-B
07:23PM 40.4175 -73.6432 87° East 293 337 7,800  Level FlightAware ADS-B
07:24PM 40.4296 -73.6070 66° East 274 315 7,800  Level FlightAware ADS-B
07:24PM 40.4438 -73.5929 37° Northeast 271 312 7,800  Level FlightAware ADS-B
07:24PM 40.4667 -73.5765 29° Northeast 251 289 7,800  Level FlightAware ADS-B
07:25PM 40.4878 -73.5615 28° Northeast 241 277 7,800  Level FlightAware ADS-B
07:25PM 40.5028 -73.5508 28° Northeast 243 280 7,800 -420 Level FlightAware ADS-B
07:25PM 40.5350 -73.5270 29° Northeast 240 276 7,500 -660 Descending FlightAware
07:26PM 40.5540 -73.5130 29° Northeast 240 276 7,200 -900 Descending FlightAware
07:26PM 40.5680 -73.5030 28° Northeast 239 275 7,000 -1,080 Descending FlightAware
07:26PM 40.5930 -73.4830 31° Northeast 238 274 6,500 -1,080 Descending FlightAware
07:27PM 40.6160 -73.4660 29° Northeast 237 273 6,100 -960 Descending FlightAware
07:27PM 40.6350 -73.4510 31° Northeast 237 273 5,800 -900 Descending FlightAware
07:27PM 40.6540 -73.4420 20° North 232 267 5,500 -960 Descending FlightAware
07:28PM 40.6900 -73.4420 360° North 227 261 5,000 -900 Descending FlightAware
07:28PM 40.7160 -73.4440 357° North 222 255 4,700 -720 Descending FlightAware
07:29PM 40.7280 -73.4460 353° North 221 254 4,600 -840 Descending FlightAware
07:29PM 40.7450 -73.4530 343° North 219 252 4,300 -1,020 Descending FlightAware
07:29PM 40.7630 -73.4630 337° Northwest 220 253 4,000 -1,080 Descending FlightAware
07:30PM 40.7820 -73.4770 331° Northwest 218 251 3,600 -1,080 Descending FlightAware
07:30PM 40.7970 -73.4930 321° Northwest 218 251 3,300 -900 Descending FlightAware
07:30PM 40.8120 -73.5110 318° Northwest 212 244 3,000 -840 Descending FlightAware
07:31PM 40.8280 -73.5290 320° Northwest 199 229 2,700 -960 Descending FlightAware
07:31PM 40.8430 -73.5460 319° Northwest 192 221 2,300 -1,200 Descending FlightAware
07:31PM 40.8470 -73.5540 303° West 190 219 2,100 -1,200 Descending FlightAware
07:31PM 40.8490 -73.5720 278° West 184 212 1,800 -720 Descending FlightAware
07:32PM 40.8450 -73.5830 244° Southwest 188 216 1,800  Level FlightAware
07:32PM 40.8380 -73.5970 237° Southwest 190 219 1,800  Level FlightAware
07:32PM 40.8330 -73.6040 227° Southwest 190 219 1,800  Level FlightAware
07:32PM 40.8290 -73.6080 217° Southwest 191 220 1,800  Level FlightAware
07:32PM 40.8120 -73.6250 217° Southwest 191 220 1,800  Level FlightAware
07:33PM 40.7940 -73.6390 210° Southwest 191 220 1,800  Level FlightAware
07:33PM 40.7780 -73.6510 210° Southwest 192 221 1,800  Level FlightAware
07:34PM 40.7630 -73.6630 211° Southwest 191 220 1,800  Level FlightAware
07:34PM 40.7470 -73.6750 210° Southwest 191 220 1,800  Level FlightAware
07:34PM 40.7350 -73.6850 212° Southwest 180 207 1,800 -540 Level FlightAware
07:34PM 40.7210 -73.6960 211° Southwest 170 196 1,500 -900 Descending FlightAware
07:35PM 40.7070 -73.7060 208° Southwest 178 205 1,200 -900 Descending FlightAware
07:35PM 40.6930 -73.7180 213° Southwest 162 186 900 -840 Descending FlightAware
07:36PM 40.6790 -73.7280 208° Southwest 138 159 600 -600 Descending FlightAware
07:36PM 40.6710 -73.7350 214° Southwest 126 145 500 -540 Descending FlightAware
07:36PM 40.6600 -73.7430 209° Southwest 132 152 300 -600 Descending FlightAware
07:37PM 40.6480 -73.7530 212° Southwest 128 147 -780 Descending FlightAware
07:37PM 40.6400 -73.7590 210° Southwest 115 132  Level FlightAware